Time;durP1;ratioP1;P1;durP2;ratioP2;P2;SDS_P1;SDS_P2;PMS_P1;PMS_P2;Temp;Humidity;BMP_temperature;BMP_pressure;BME280_temperature;BME280_humidity;BME280_pressure;Samples;Min_cycle;Max_cycle;Signal;HPM_P1;HPM_P2
2022/07/01 00:00:42;;;;;;;13.80;7.20;;;;;;;24.07;77.46;100772.19;1670118;84;21591;-75
2022/07/01 00:03:09;;;;;;;12.80;7.35;;;;;;;24.11;76.33;100776.17;1677860;84;21047;-75
2022/07/01 00:05:36;;;;;;;12.65;7.55;;;;;;;23.58;78.05;100776.84;1662627;84;21015;-75
2022/07/01 00:08:05;;;;;;;16.65;8.48;;;;;;;23.47;80.66;100781.81;1667532;84;21055;-75
2022/07/01 00:10:32;;;;;;;14.85;9.20;;;;;;;23.52;80.34;100777.44;1658062;84;21009;-75
2022/07/01 00:12:59;;;;;;;14.63;9.30;;;;;;;23.44;80.61;100778.19;1663943;84;21054;-75
2022/07/01 00:15:26;;;;;;;12.78;8.48;;;;;;;23.45;80.40;100776.37;1670273;84;21122;-75
2022/07/01 00:17:53;;;;;;;16.02;9.43;;;;;;;23.33;80.59;100770.47;1659488;84;21097;-74
2022/07/01 00:20:20;;;;;;;14.38;9.08;;;;;;;23.30;80.74;100772.09;1668877;84;21654;-75
2022/07/01 00:22:47;;;;;;;14.65;8.93;;;;;;;23.39;80.86;100768.58;1659549;84;21129;-75
2022/07/01 00:25:14;;;;;;;12.75;9.65;;;;;;;23.24;81.49;100771.35;1660553;84;21050;-75
2022/07/01 00:27:42;;;;;;;15.05;10.03;;;;;;;23.10;81.99;100768.69;1672067;84;21043;-75
2022/07/01 00:30:10;;;;;;;14.95;8.80;;;;;;;23.23;81.78;100765.74;1665131;84;21063;-75
2022/07/01 00:32:37;;;;;;;12.35;8.58;;;;;;;23.19;81.63;100763.42;1681617;84;21527;-75
2022/07/01 00:35:05;;;;;;;10.72;8.25;;;;;;;23.18;81.02;100765.69;1666032;84;21562;-74
2022/07/01 00:37:32;;;;;;;11.93;9.25;;;;;;;23.15;80.73;100769.89;1682962;83;21148;-75
2022/07/01 00:40:00;;;;;;;14.63;10.13;;;;;;;23.24;80.49;100767.41;1661485;85;21047;-75
2022/07/01 00:42:27;;;;;;;17.12;10.45;;;;;;;23.23;80.90;100763.94;1660378;84;21496;-75
2022/07/01 00:44:54;;;;;;;18.10;10.58;;;;;;;23.02;81.21;100762.84;1657478;84;21615;-75
2022/07/01 00:47:21;;;;;;;14.78;10.35;;;;;;;23.08;81.50;100764.89;1661764;84;21071;-75
2022/07/01 00:49:48;;;;;;;10.72;8.73;;;;;;;22.96;81.28;100766.00;1677696;85;21030;-75
2022/07/01 00:52:16;;;;;;;13.53;8.40;;;;;;;23.00;81.25;100760.31;1663612;84;21116;-75
2022/07/01 00:54:45;;;;;;;11.95;7.92;;;;;;;22.93;80.95;100760.55;1662913;84;21486;-76
2022/07/01 00:57:12;;;;;;;15.25;8.15;;;;;;;22.73;81.38;100764.16;1665717;85;21547;-75
2022/07/01 00:59:40;;;;;;;12.28;8.48;;;;;;;22.78;81.67;100763.27;1662363;84;21035;-76
2022/07/01 01:02:09;;;;;;;12.50;8.93;;;;;;;22.72;82.15;100759.40;1664296;84;21042;-76
2022/07/01 01:04:36;;;;;;;15.45;10.05;;;;;;;22.79;82.43;100757.88;1683913;85;21055;-76
2022/07/01 01:07:04;;;;;;;15.70;10.93;;;;;;;22.99;81.89;100761.76;1678568;84;21155;-75
2022/07/01 01:09:31;;;;;;;19.50;11.78;;;;;;;23.04;79.61;100764.84;1678377;84;21536;-75
2022/07/01 01:11:58;;;;;;;17.85;11.75;;;;;;;22.59;81.52;100758.39;1660463;83;22732;-75
2022/07/01 01:14:26;;;;;;;17.70;11.35;;;;;;;22.58;81.57;100761.97;1677522;84;21528;-75
2022/07/01 01:16:53;;;;;;;15.70;10.90;;;;;;;22.60;81.44;100765.28;1684106;84;21095;-75
2022/07/01 01:19:20;;;;;;;17.35;11.50;;;;;;;22.63;81.63;100755.02;1667036;85;21127;-75
2022/07/01 01:21:47;;;;;;;17.42;11.90;;;;;;;22.55;82.15;100751.77;1671558;84;21086;-75
2022/07/01 01:24:14;;;;;;;17.80;11.63;;;;;;;22.55;82.81;100748.33;1670071;84;21074;-75
2022/07/01 01:26:41;;;;;;;16.62;11.00;;;;;;;22.44;83.87;100749.28;1668556;84;21044;-75
2022/07/01 01:29:08;;;;;;;15.38;10.78;;;;;;;22.51;83.51;100749.08;1670012;84;21040;-75
2022/07/01 01:31:36;;;;;;;14.43;11.00;;;;;;;22.53;83.09;100751.57;1668874;83;21086;-75
2022/07/01 01:34:03;;;;;;;16.85;11.12;;;;;;;22.63;82.84;100750.22;1659539;84;21042;-75
2022/07/01 01:36:32;;;;;;;19.60;11.80;;;;;;;22.92;82.04;100746.25;1678051;84;21143;-75
2022/07/01 01:39:05;;;;;;;14.70;10.68;;;;;;;23.01;80.91;100746.69;1662148;85;21154;-75
2022/07/01 01:41:28;;;;;;;17.17;10.80;;;;;;;23.10;80.31;100751.63;1672593;85;21024;-75
2022/07/01 01:43:56;;;;;;;16.57;10.98;;;;;;;23.25;78.57;100747.55;1683726;85;21599;-76
2022/07/01 01:46:23;;;;;;;13.35;10.25;;;;;;;23.26;78.44;100746.59;1665837;84;21617;-76
2022/07/01 01:48:50;;;;;;;18.62;10.70;;;;;;;23.06;77.98;100752.39;1667214;84;21099;-76
2022/07/01 01:51:18;;;;;;;16.15;10.13;;;;;;;24.20;72.55;100748.95;1685798;85;21546;-75
2022/07/01 01:53:45;;;;;;;14.55;9.85;;;;;;;23.76;75.31;100758.50;1672555;85;21043;-76
2022/07/01 01:56:12;;;;;;;17.67;10.72;;;;;;;23.95;73.80;100758.92;1665090;84;21102;-75
2022/07/01 01:58:42;;;;;;;15.48;9.98;;;;;;;22.56;77.05;100761.77;1676260;85;21051;-75
2022/07/01 02:01:11;;;;;;;14.90;10.08;;;;;;;22.75;78.77;100764.38;1667897;84;21646;-76
2022/07/01 02:03:41;;;;;;;17.35;10.90;;;;;;;22.81;78.77;100766.94;1658375;84;21020;-75
2022/07/01 02:06:11;;;;;;;18.30;11.22;;;;;;;22.84;78.77;100765.33;1669292;84;21040;-75
2022/07/01 02:08:39;;;;;;;14.33;10.68;;;;;;;22.49;80.40;100768.06;1663464;84;21182;-75
2022/07/01 02:11:07;;;;;;;19.02;11.53;;;;;;;22.63;80.63;100772.06;1674715;85;21067;-75
2022/07/01 02:13:35;;;;;;;15.20;10.82;;;;;;;22.65;80.39;100771.91;1658844;84;21587;-75
2022/07/01 02:16:04;;;;;;;19.75;11.33;;;;;;;22.96;79.23;100781.26;1665972;84;21099;-76
2022/07/01 02:18:32;;;;;;;14.78;10.70;;;;;;;23.12;77.31;100777.26;1660587;85;21040;-75
2022/07/01 02:21:00;;;;;;;20.37;11.48;;;;;;;22.86;77.40;100777.83;1676981;85;21122;-74
2022/07/01 02:23:29;;;;;;;16.75;12.15;;;;;;;22.87;78.17;100782.58;1661074;84;21590;-75
2022/07/01 02:25:56;;;;;;;17.05;11.45;;;;;;;22.86;78.01;100775.20;1680568;84;21126;-74
2022/07/01 02:28:23;;;;;;;16.70;11.18;;;;;;;22.87;78.00;100770.31;1667382;84;21155;-74
2022/07/01 02:30:50;;;;;;;19.50;11.20;;;;;;;22.87;78.04;100774.70;1669858;83;21035;-75
2022/07/01 02:33:18;;;;;;;17.00;11.12;;;;;;;22.97;77.59;100778.98;1684329;85;21083;-74
2022/07/01 02:35:45;;;;;;;16.20;10.88;;;;;;;23.38;75.99;100776.14;1663139;85;21015;-74
2022/07/01 02:38:12;;;;;;;18.05;10.93;;;;;;;23.16;76.34;100783.88;1663343;84;21066;-74
2022/07/01 02:40:40;;;;;;;16.10;10.50;;;;;;;23.31;75.88;100778.98;1675332;84;21055;-74
2022/07/01 02:43:07;;;;;;;17.17;11.03;;;;;;;23.24;75.81;100789.73;1673574;85;21523;-75
2022/07/01 02:45:36;;;;;;;18.60;11.12;;;;;;;23.09;76.25;100790.66;1679199;85;21071;-74
2022/07/01 02:48:03;;;;;;;15.78;10.63;;;;;;;23.62;76.34;100790.04;1671760;84;21547;-74
2022/07/01 02:50:30;;;;;;;15.13;10.80;;;;;;;23.43;74.12;100792.27;1664945;84;21107;-75
2022/07/01 02:52:57;;;;;;;15.28;10.82;;;;;;;24.32;72.42;100786.89;1673514;85;21089;-74
2022/07/01 02:55:24;;;;;;;15.30;10.25;;;;;;;25.11;69.58;100788.66;1662673;84;21582;-74
2022/07/01 02:57:51;;;;;;;15.53;10.45;;;;;;;25.04;68.69;100792.06;1668073;85;21487;-74
2022/07/01 03:00:20;;;;;;;15.45;10.88;;;;;;;24.86;69.01;100791.64;1660176;84;21119;-75
2022/07/01 03:02:48;;;;;;;14.60;10.48;;;;;;;25.24;68.19;100790.08;1666648;84;21054;-74
2022/07/01 03:05:16;;;;;;;17.20;11.55;;;;;;;24.79;69.05;100793.22;1660138;84;21027;-73
2022/07/01 03:07:43;;;;;;;17.17;10.80;;;;;;;24.97;68.85;100793.19;1681118;85;21040;-73
2022/07/01 03:10:12;;;;;;;12.70;9.98;;;;;;;25.11;68.01;100795.75;1682406;84;22444;-73
2022/07/01 03:12:40;;;;;;;16.70;11.25;;;;;;;25.18;68.01;100798.92;1685519;84;21035;-73
2022/07/01 03:15:14;;;;;;;18.42;10.98;;;;;;;25.32;67.58;100794.89;1679975;84;21211;-74
2022/07/01 03:17:43;;;;;;;14.40;10.68;;;;;;;25.15;68.37;100797.09;1661687;84;21527;-73
2022/07/01 03:20:14;;;;;;;14.58;10.53;;;;;;;25.71;67.00;100794.42;1658490;84;21063;-73
2022/07/01 03:22:44;;;;;;;18.45;11.20;;;;;;;25.49;67.42;100788.41;1669062;84;21071;-73
2022/07/01 03:25:11;;;;;;;15.63;10.60;;;;;;;23.85;72.93;100800.22;1663672;84;21123;-73
2022/07/01 03:27:44;;;;;;;15.78;10.93;;;;;;;23.46;75.07;100802.51;1665204;84;21088;-75
2022/07/01 03:30:09;;;;;;;17.23;11.12;;;;;;;22.23;81.24;100808.89;1666035;83;21054;-74
2022/07/01 03:32:38;;;;;;;20.12;12.55;;;;;;;22.10;90.75;100804.73;1674835;84;21013;-75
2022/07/01 03:35:35;;;;;;;18.27;11.88;;;;;;;22.17;92.48;100799.77;1673757;84;21030;-74
2022/07/01 03:37:36;;;;;;;23.10;13.08;;;;;;;23.71;91.59;100794.44;1662361;85;21039;-74
2022/07/01 03:40:03;;;;;;;20.10;13.75;;;;;;;24.63;80.10;100798.36;1659693;84;21007;-75
2022/07/01 03:42:30;;;;;;;24.52;15.23;;;;;;;22.90;85.55;100804.14;1668691;83;21570;-74
2022/07/01 03:45:01;;;;;;;23.55;14.78;;;;;;;24.21;87.58;100790.58;1666719;84;21058;-74
2022/07/01 03:47:28;;;;;;;24.55;14.95;;;;;;;23.60;87.45;100799.87;1658632;85;21598;-74
2022/07/01 03:49:56;;;;;;;23.40;15.72;;;;;;;24.76;80.90;100788.28;1661673;84;21146;-75
2022/07/01 03:52:23;;;;;;;22.42;14.58;;;;;;;25.59;75.49;100781.20;1666760;84;21613;-75
2022/07/01 03:54:50;;;;;;;22.85;15.50;;;;;;;25.55;76.82;100784.64;1679702;84;21610;-75
2022/07/01 03:57:18;;;;;;;27.85;17.73;;;;;;;24.10;81.27;100791.60;1661495;84;21094;-75
2022/07/01 03:59:46;;;;;;;26.82;17.70;;;;;;;26.36;74.63;100792.95;1661766;84;21031;-74
2022/07/01 04:02:13;;;;;;;27.60;18.52;;;;;;;24.75;82.50;100789.24;1666561;85;21024;-75
2022/07/01 04:04:40;;;;;;;27.45;18.37;;;;;;;23.98;85.57;100798.05;1675541;85;21091;-74
2022/07/01 04:07:11;;;;;;;29.45;17.37;;;;;;;24.96;80.87;100792.37;1675120;85;21099;-75
2022/07/01 04:09:38;;;;;;;27.05;17.98;;;;;;;24.78;82.11;100796.84;1676884;85;21090;-75
2022/07/01 04:12:08;;;;;;;28.87;18.55;;;;;;;26.86;75.11;100783.20;1669544;84;21551;-75
2022/07/01 04:14:36;;;;;;;26.75;17.52;;;;;;;24.99;80.69;100786.77;1662451;84;21056;-75
2022/07/01 04:17:04;;;;;;;29.10;17.27;;;;;;;25.63;76.68;100794.39;1677778;84;21039;-74
2022/07/01 04:19:32;;;;;;;25.17;17.27;;;;;;;25.67;78.09;100795.73;1679818;83;21031;-75
2022/07/01 04:24:44;;;;;;;21.40;16.40;;;;;;;25.16;83.21;100794.77;1663594;84;21032;-75
2022/07/01 04:27:11;;;;;;;25.05;16.95;;;;;;;25.14;85.98;100789.69;1672815;84;21110;-75
2022/07/01 04:29:39;;;;;;;25.00;17.07;;;;;;;27.17;80.84;100791.25;1675922;84;21056;-74
2022/07/01 04:32:07;;;;;;;25.80;16.87;;;;;;;28.19;72.56;100791.81;1665784;85;21059;-74
2022/07/01 04:34:34;;;;;;;24.02;16.20;;;;;;;26.18;78.45;100793.09;1668266;84;21030;-74
2022/07/01 04:37:03;;;;;;;24.12;16.02;;;;;;;26.01;82.16;100793.53;1686700;84;21020;-74
2022/07/01 04:39:31;;;;;;;23.62;14.95;;;;;;;27.51;81.33;100791.48;1686134;83;21482;-74
2022/07/01 04:41:59;;;;;;;20.12;14.85;;;;;;;26.22;84.32;100788.28;1665897;84;22556;-74
2022/07/01 04:44:32;;;;;;;18.25;13.68;;;;;;;29.06;73.01;100792.73;1662823;84;21083;-75
2022/07/01 04:47:01;;;;;;;21.48;13.50;;;;;;;28.19;76.20;100795.78;1669512;83;21095;-75
2022/07/01 04:49:28;;;;;;;20.15;12.37;;;;;;;29.21;71.51;100789.59;1665952;84;21492;-74
2022/07/01 04:51:57;;;;;;;19.52;12.73;;;;;;;29.68;69.39;100796.81;1670697;84;21546;-74
2022/07/01 04:54:27;;;;;;;19.77;12.33;;;;;;;29.63;68.83;100795.24;1664826;84;21133;-74
2022/07/01 04:56:54;;;;;;;17.73;11.57;;;;;;;29.97;67.69;100801.27;1675129;84;21076;-75
2022/07/01 04:59:21;;;;;;;15.83;10.40;;;;;;;30.41;66.65;100799.46;1680279;85;21547;-75
2022/07/01 05:01:49;;;;;;;14.38;10.03;;;;;;;30.20;67.50;100800.27;1666492;85;21059;-74
2022/07/01 05:04:18;;;;;;;14.87;9.58;;;;;;;30.47;65.07;100798.70;1661313;84;21523;-75
2022/07/01 05:06:47;;;;;;;16.27;9.98;;;;;;;29.08;67.48;100814.58;1663266;84;21023;-76
2022/07/01 05:09:17;;;;;;;12.20;8.75;;;;;;;28.20;73.06;100810.65;1668869;84;21109;-75
2022/07/01 05:11:44;;;;;;;13.85;9.85;;;;;;;28.51;73.35;100803.50;1668829;84;21008;-75
2022/07/01 05:14:12;;;;;;;12.80;8.08;;;;;;;28.26;74.08;100804.65;1662043;84;21461;-75
2022/07/01 05:16:39;;;;;;;14.43;8.43;;;;;;;28.37;73.91;100805.58;1665482;84;21055;-76
2022/07/01 05:21:59;;;;;;;14.83;8.48;;;;;;;29.01;65.33;100794.58;1656919;83;21031;-78
2022/07/01 05:24:30;;;;;;;15.15;7.40;;;;;;;31.64;57.74;100796.70;1669557;84;22479;-76
2022/07/01 05:27:00;;;;;;;9.93;6.35;;;;;;;31.57;56.04;100805.67;1676222;83;20988;-76
2022/07/01 05:29:28;;;;;;;12.03;6.53;;;;;;;32.32;53.36;100801.16;1656091;84;21645;-76
2022/07/01 05:31:56;;;;;;;13.28;7.17;;;;;;;32.41;51.65;100799.13;1653660;84;21505;-75
2022/07/01 05:34:23;;;;;;;17.37;10.63;;;;;;;32.63;51.26;100801.92;1641951;86;21103;-77
2022/07/01 05:36:50;;;;;;;17.45;12.15;;;;;;;32.54;50.65;100805.77;1690641;83;21015;-76
2022/07/01 05:39:17;;;;;;;19.12;11.40;;;;;;;32.69;50.31;100806.95;1689089;83;21051;-76
2022/07/01 05:41:45;;;;;;;14.00;9.10;;;;;;;31.54;51.82;100810.88;1689246;83;21513;-76
2022/07/01 05:44:12;;;;;;;16.02;8.18;;;;;;;30.31;54.65;100801.95;1674397;83;21160;-78
2022/07/01 05:46:40;;;;;;;10.98;7.30;;;;;;;30.14;55.89;100800.00;1672743;83;21146;-77
2022/07/01 05:49:07;;;;;;;8.93;7.15;;;;;;;29.63;56.81;100805.34;1687898;83;22270;-77
2022/07/01 05:51:34;;;;;;;12.05;7.15;;;;;;;29.70;58.33;100808.06;1669015;84;21075;-75
2022/07/01 05:54:02;;;;;;;12.30;6.70;;;;;;;29.70;58.33;100808.06;1655145;84;21053;-76
2022/07/01 05:56:29;;;;;;;9.80;6.42;;;;;;;29.70;58.78;100797.45;1691955;83;21019;-76
2022/07/01 05:58:56;;;;;;;11.95;5.87;;;;;;;29.81;57.97;100813.45;1674587;83;21019;-76
2022/07/01 06:01:23;;;;;;;6.90;5.97;;;;;;;29.87;58.00;100804.22;1679140;83;21067;-77
2022/07/01 06:03:50;;;;;;;8.58;5.85;;;;;;;29.96;57.45;100808.91;1677967;83;21088;-76
2022/07/01 06:06:19;;;;;;;9.38;5.40;;;;;;;29.93;57.18;100802.66;1696098;83;21134;-77
2022/07/01 06:08:46;;;;;;;9.50;5.25;;;;;;;29.81;56.06;100809.47;1672511;83;21048;-76
2022/07/01 06:11:14;;;;;;;11.43;5.58;;;;;;;30.01;54.56;100816.30;1682345;83;20995;-77
2022/07/01 06:13:42;;;;;;;12.68;6.10;;;;;;;29.93;53.83;100800.82;1677738;81;21016;-75
2022/07/01 06:16:08;;;;;;;11.40;5.50;;;;;;;30.14;54.47;100812.47;1681462;83;21059;-77
2022/07/01 06:18:36;;;;;;;9.00;5.20;;;;;;;30.21;54.68;100805.40;1676949;83;21099;-76
2022/07/01 06:21:03;;;;;;;11.12;5.80;;;;;;;30.47;53.88;100804.82;1667141;84;21212;-75
2022/07/01 06:23:30;;;;;;;11.40;6.20;;;;;;;30.51;53.42;100807.41;1678139;82;21164;-76
2022/07/01 06:25:58;;;;;;;12.23;5.53;;;;;;;30.37;53.12;100808.31;1667547;84;21075;-75
2022/07/01 06:28:29;;;;;;;9.50;5.08;;;;;;;30.57;52.80;100806.34;1679111;83;21029;-76
2022/07/01 06:30:55;;;;;;;7.72;5.00;;;;;;;32.51;48.26;100796.87;1690861;82;21064;-76
2022/07/01 06:33:22;;;;;;;8.03;4.97;;;;;;;31.07;50.17;100807.14;1665827;84;21037;-77
2022/07/01 06:35:51;;;;;;;10.82;5.40;;;;;;;30.80;48.42;100794.98;1699461;82;21150;-75
2022/07/01 06:38:18;;;;;;;7.62;5.10;;;;;;;30.77;49.24;100802.00;1669222;82;21051;-77
2022/07/01 06:41:26;;;;;;;6.70;4.58;;;;;;;30.54;48.14;100805.72;1686145;83;21073;-74
2022/07/01 06:43:13;;;;;;;8.85;4.70;;;;;;;30.24;47.90;100806.84;1668338;84;21000;-76
2022/07/01 06:45:41;;;;;;;10.15;4.90;;;;;;;30.41;48.17;100799.46;1657216;84;21079;-75
2022/07/01 06:48:08;;;;;;;10.05;4.60;;;;;;;30.28;46.80;100812.09;1671822;84;21059;-76
2022/07/01 06:50:36;;;;;;;8.43;5.30;;;;;;;30.43;47.54;100799.58;1682584;84;21047;-79
2022/07/01 06:53:03;;;;;;;12.65;4.80;;;;;;;30.56;47.56;100797.56;1668400;84;21032;-76
2022/07/01 06:55:31;;;;;;;8.23;4.62;;;;;;;30.58;47.31;100800.84;1690492;81;21049;-75
2022/07/01 06:57:58;;;;;;;13.13;6.58;;;;;;;30.89;46.30;100799.15;1672113;84;20988;-78
2022/07/01 07:00:25;;;;;;;9.83;5.25;;;;;;;31.45;48.06;100796.09;1686774;82;21015;-76
2022/07/01 07:02:53;;;;;;;10.78;4.92;;;;;;;30.88;46.01;100803.33;1664993;84;21068;-77
2022/07/01 07:05:20;;;;;;;8.18;4.20;;;;;;;31.41;44.47;100801.47;1662121;84;21125;-75
2022/07/01 07:07:48;;;;;;;12.15;4.28;;;;;;;30.53;45.50;100804.05;1680157;83;21135;-76
2022/07/01 07:10:15;;;;;;;6.05;3.90;;;;;;;31.00;45.12;100812.40;1692237;84;21045;-77
2022/07/01 07:12:42;;;;;;;5.05;3.20;;;;;;;30.86;44.47;100814.62;1683446;82;21012;-76
2022/07/01 07:15:10;;;;;;;7.12;3.50;;;;;;;31.01;42.68;100811.91;1691076;83;20984;-74
2022/07/01 07:17:38;;;;;;;5.22;4.00;;;;;;;31.26;44.78;100809.08;1668029;85;21077;-78
2022/07/01 07:20:06;;;;;;;7.22;3.45;;;;;;;30.92;43.27;100804.09;1672550;84;21032;-76
2022/07/01 07:22:34;;;;;;;6.87;4.05;;;;;;;31.14;42.87;100813.30;1675727;84;21018;-76
2022/07/01 07:25:01;;;;;;;6.15;3.80;;;;;;;31.13;43.31;100827.12;1685601;83;21066;-76
2022/07/01 07:27:29;;;;;;;6.50;4.40;;;;;;;31.07;43.55;100810.62;1672406;82;21037;-77
2022/07/01 07:29:56;;;;;;;7.12;4.37;;;;;;;31.25;44.34;100815.95;1658403;84;21012;-75
2022/07/01 07:32:23;;;;;;;11.90;4.17;;;;;;;31.69;44.11;100810.23;1668668;83;21015;-75
2022/07/01 07:34:50;;;;;;;10.75;4.53;;;;;;;31.94;43.63;100809.17;1677653;84;21025;-76
2022/07/01 07:37:17;;;;;;;7.12;4.00;;;;;;;31.91;43.34;100811.41;1679458;82;21098;-77
2022/07/01 07:39:44;;;;;;;9.70;3.98;;;;;;;32.04;44.16;100812.00;1692370;83;21079;-77
2022/07/01 07:42:13;;;;;;;6.55;4.00;;;;;;;31.45;44.17;100810.24;1674567;84;20999;-76
2022/07/01 07:44:40;;;;;;;9.45;4.08;;;;;;;31.89;43.65;100808.12;1667789;84;21006;-77
2022/07/01 07:47:07;;;;;;;7.55;3.80;;;;;;;31.83;44.53;100819.58;1674762;82;21036;-76
2022/07/01 07:49:34;;;;;;;5.30;3.70;;;;;;;32.03;43.50;100808.50;1687017;82;21544;-77
2022/07/01 07:52:01;;;;;;;7.58;4.33;;;;;;;32.16;43.81;100813.53;1673534;84;22551;-75
2022/07/01 07:54:28;;;;;;;7.45;3.80;;;;;;;32.20;44.22;100813.44;1674202;83;21511;-76
2022/07/01 07:56:55;;;;;;;5.95;3.85;;;;;;;32.40;44.04;100811.64;1687808;83;21025;-77
2022/07/01 07:59:22;;;;;;;9.73;4.12;;;;;;;32.43;43.50;100803.22;1680475;84;21037;-74
2022/07/01 08:01:49;;;;;;;6.70;3.85;;;;;;;32.42;42.71;100811.41;1675984;84;21024;-77
2022/07/01 08:04:16;;;;;;;8.85;3.60;;;;;;;32.27;42.93;100804.44;1680983;84;21056;-79
2022/07/01 08:06:43;;;;;;;8.45;3.75;;;;;;;32.10;42.40;100800.55;1671176;83;21064;-76
2022/07/01 08:09:10;;;;;;;6.85;3.17;;;;;;;32.48;42.15;100794.11;1669583;84;21601;-75
2022/07/01 08:11:38;;;;;;;7.10;3.37;;;;;;;32.45;42.82;100790.52;1673786;84;21656;-76
2022/07/01 08:14:05;;;;;;;7.17;3.05;;;;;;;32.59;42.07;100788.70;1682094;84;21075;-76
2022/07/01 08:16:33;;;;;;;10.93;3.10;;;;;;;32.67;41.08;100792.48;1691133;83;21075;-78
2022/07/01 08:18:59;;;;;;;6.75;3.00;;;;;;;32.17;41.62;100797.36;1662264;84;21191;-77
2022/07/01 08:21:27;;;;;;;4.87;2.92;;;;;;;32.24;40.68;100795.53;1674703;84;21063;-76
2022/07/01 08:23:54;;;;;;;8.03;3.00;;;;;;;32.47;41.62;100793.79;1676721;84;21128;-77
2022/07/01 08:26:21;;;;;;;4.33;2.67;;;;;;;32.52;39.47;100798.01;1687255;83;21012;-77
2022/07/01 08:28:48;;;;;;;6.15;2.85;;;;;;;32.45;39.22;100795.03;1676452;83;21020;-80
2022/07/01 08:31:15;;;;;;;3.40;2.40;;;;;;;32.37;40.82;100791.23;1669441;84;21531;-77
2022/07/01 08:33:42;;;;;;;8.93;2.83;;;;;;;32.34;39.72;100789.78;1659329;84;21320;-77
2022/07/01 08:36:10;;;;;;;3.75;2.80;;;;;;;32.04;39.20;100794.17;1704435;81;21006;-77
2022/07/01 08:38:37;;;;;;;6.80;2.70;;;;;;;32.25;39.29;100790.50;1695940;83;21066;-78
2022/07/01 08:41:04;;;;;;;6.53;2.65;;;;;;;32.45;38.69;100773.19;1683222;83;21034;-76
2022/07/01 08:43:32;;;;;;;6.17;3.30;;;;;;;32.55;38.87;100776.00;1681218;85;21516;-76
2022/07/01 08:46:01;;;;;;;7.03;2.58;;;;;;;32.67;39.51;100777.82;1668333;84;21043;-77
2022/07/01 08:48:30;;;;;;;6.45;2.70;;;;;;;32.69;38.62;100773.63;1694258;82;21003;-76
2022/07/01 08:50:57;;;;;;;6.85;2.52;;;;;;;33.00;38.69;100772.94;1677019;84;21585;-76
2022/07/01 08:53:24;;;;;;;7.00;2.52;;;;;;;33.19;39.42;100776.59;1662560;84;21488;-77
2022/07/01 08:58:37;;;;;;;7.83;2.80;;;;;;;32.73;37.66;100772.18;1696817;83;21000;-78
2022/07/01 09:01:23;;;;;;;4.72;2.50;;;;;;;32.77;36.66;100775.23;1700720;83;21040;-78
2022/07/01 09:03:53;;;;;;;5.40;2.60;;;;;;;32.90;37.04;100780.03;1658121;84;21090;-77
2022/07/01 09:06:24;;;;;;;6.70;2.60;;;;;;;32.86;35.98;100784.14;1667238;83;21029;-75
2022/07/01 09:08:51;;;;;;;4.42;2.50;;;;;;;32.90;36.36;100774.70;1671191;83;21048;-77
2022/07/01 09:11:25;;;;;;;5.08;2.10;;;;;;;32.75;35.65;100783.45;1661588;84;21583;-76
2022/07/01 09:14:12;;;;;;;4.12;2.20;;;;;;;32.81;34.82;100773.30;1686088;83;21021;-76
2022/07/01 09:16:45;;;;;;;5.60;2.45;;;;;;;32.73;34.30;100776.18;1669140;83;21159;-76
2022/07/01 09:19:14;;;;;;;6.30;2.45;;;;;;;32.82;34.13;100774.92;1697743;82;21028;-78
2022/07/01 09:21:42;;;;;;;6.20;2.70;;;;;;;33.03;35.78;100774.35;1665972;84;21538;-76
2022/07/01 09:24:40;;;;;;;3.85;2.22;;;;;;;32.99;36.49;100793.14;1633889;85;21112;-74
2022/07/01 09:27:13;;;;;;;4.72;2.60;;;;;;;32.98;35.89;100776.33;1676135;83;20981;-78
2022/07/01 09:29:52;;;;;;;5.20;2.55;;;;;;;33.06;34.27;100767.28;1680343;84;21042;-77
2022/07/01 09:32:22;;;;;;;4.65;2.50;;;;;;;32.77;35.83;100764.56;1671852;84;21066;-77
2022/07/01 09:34:53;;;;;;;8.25;2.80;;;;;;;33.04;35.21;100766.67;1682506;82;21043;-76
2022/07/01 09:37:24;;;;;;;2.70;2.45;;;;;;;32.71;36.38;100760.91;1666721;84;21042;-75
2022/07/01 09:39:53;;;;;;;7.40;2.37;;;;;;;32.70;36.40;100769.39;1631735;85;21079;-79
2022/07/01 09:42:23;;;;;;;5.53;2.60;;;;;;;33.05;35.67;100761.63;1657079;85;21025;-78
2022/07/01 09:45:02;;;;;;;9.80;2.75;;;;;;;33.24;34.97;100755.45;1641176;86;21087;-76
2022/07/01 09:47:32;;;;;;;7.53;3.08;;;;;;;33.34;36.75;100759.00;1667649;83;21105;-75
2022/07/01 09:50:00;;;;;;;7.08;2.55;;;;;;;32.81;36.09;100765.30;1681941;83;21039;-76
2022/07/01 09:52:27;;;;;;;8.25;2.60;;;;;;;33.09;36.38;100763.72;1680072;83;21113;-77
2022/07/01 09:54:55;;;;;;;4.37;2.50;;;;;;;33.23;35.63;100756.46;1690391;83;21048;-75
2022/07/01 09:57:22;;;;;;;4.33;2.55;;;;;;;33.11;35.26;100750.99;1695883;83;21020;-80
2022/07/01 09:59:51;;;;;;;5.03;2.30;;;;;;;32.82;35.92;100751.44;1683969;83;21040;-78
2022/07/01 10:02:20;;;;;;;5.37;2.65;;;;;;;32.67;35.62;100749.02;1672226;84;21104;-77
2022/07/01 10:04:52;;;;;;;3.60;2.60;;;;;;;32.80;35.53;100752.98;1671845;84;21030;-79
2022/07/01 10:07:44;;;;;;;5.15;2.75;;;;;;;32.68;36.64;100740.80;1664092;84;21078;-79
2022/07/01 10:10:53;;;;;;;4.85;2.50;;;;;;;32.85;36.42;100742.52;1682643;84;21021;-76
2022/07/01 10:13:26;;;;;;;5.55;2.37;;;;;;;33.05;37.14;100737.12;1586518;89;21119;-77
2022/07/01 10:15:56;;;;;;;7.22;2.55;;;;;;;32.85;36.63;100741.19;1574380;89;21212;-76
2022/07/01 10:18:27;;;;;;;8.03;2.50;;;;;;;33.19;37.47;100728.56;1578931;86;21137;-78
2022/07/01 10:20:57;;;;;;;4.50;2.20;;;;;;;33.23;36.75;100732.45;1688439;84;21009;-77
2022/07/01 10:23:41;;;;;;;6.00;2.70;;;;;;;32.95;37.38;100742.09;1682639;84;21128;-77
2022/07/01 10:26:10;;;;;;;5.05;3.40;;;;;;;33.26;37.87;100721.37;1682737;84;21041;-76
2022/07/01 10:28:43;;;;;;;7.28;2.90;;;;;;;33.69;37.23;100717.27;1675960;84;21054;-77
2022/07/01 10:31:16;;;;;;;;;;;;;;;33.45;37.30;100716.14;1678330;84;21552;-76
2022/07/01 10:33:49;;;;;;;8.73;2.20;;;;;;;33.06;35.93;100719.27;1673001;84;20171;-78
2022/07/01 10:36:35;;;;;;;3.83;1.95;;;;;;;33.26;36.85;100706.70;1680362;85;21078;-77
2022/07/01 10:39:08;;;;;;;4.85;2.10;;;;;;;33.31;35.63;100705.55;1675188;84;21018;-78
2022/07/01 10:41:39;;;;;;;3.02;1.92;;;;;;;33.47;35.76;100694.87;1678642;84;21167;-79
2022/07/01 10:44:10;;;;;;;7.37;2.60;;;;;;;33.39;35.92;100700.98;1678740;85;21093;-76
2022/07/01 10:46:49;;;;;;;8.85;2.70;;;;;;;33.21;36.99;100705.16;1669243;83;21559;-78
2022/07/01 10:49:23;;;;;;;6.42;2.60;;;;;;;33.36;36.26;100702.77;1661912;84;21130;-78
2022/07/01 10:51:57;;;;;;;7.20;2.60;;;;;;;33.19;36.43;100707.23;1657166;84;21097;-75
2022/07/01 10:54:48;;;;;;;2.37;2.10;;;;;;;33.77;36.77;100691.64;1658520;84;21059;-77
2022/07/01 10:57:22;;;;;;;6.75;2.37;;;;;;;33.65;35.09;100685.36;1670100;84;21033;-75
2022/07/01 11:00:03;;;;;;;6.00;2.30;;;;;;;33.39;35.61;100704.98;1672140;84;21107;-77
2022/07/01 11:02:35;;;;;;;5.53;2.17;;;;;;;33.71;35.98;100690.64;1684190;84;21572;-76
2022/07/01 11:05:10;;;;;;;5.60;2.17;;;;;;;33.73;35.25;100693.92;1661555;84;21049;-78
2022/07/01 11:07:44;;;;;;;5.00;2.45;;;;;;;33.89;35.71;100692.57;1677638;84;21552;-75
2022/07/01 11:10:15;;;;;;;6.30;3.20;;;;;;;34.25;35.72;100679.58;1668287;84;21049;-76
2022/07/01 11:12:46;;;;;;;4.47;2.17;;;;;;;33.93;35.53;100681.75;1676529;84;21589;-75
2022/07/01 11:15:15;;;;;;;9.35;2.80;;;;;;;34.24;35.10;100688.61;1682362;83;21143;-75
2022/07/01 11:17:47;;;;;;;5.10;2.30;;;;;;;33.99;36.34;100697.43;1681304;84;21046;-76
2022/07/01 11:20:14;;;;;;;5.45;2.30;;;;;;;34.07;36.36;100691.81;1666164;84;21543;-75
2022/07/01 11:22:41;;;;;;;5.25;2.22;;;;;;;34.04;35.76;100674.06;1677321;84;21072;-77
2022/07/01 11:25:12;;;;;;;12.43;2.90;;;;;;;33.72;37.24;100676.27;1672604;83;21639;-76
2022/07/01 11:27:40;;;;;;;11.22;3.33;;;;;;;34.07;36.65;100677.13;1681325;84;21121;-77
2022/07/01 11:30:14;;;;;;;6.65;2.98;;;;;;;34.08;37.43;100682.75;1662750;84;21060;-77
2022/07/01 11:32:46;;;;;;;7.20;3.60;;;;;;;34.01;36.98;100682.00;1640582;86;21555;-76